Wingate, Pennsylvania
Current Conditions -  °F | °C
As of 1:35 AM on Saturday 20 Dec 2014 (Local Time) from KUNV Reporting Station
Overcast Overcast  
Wind Chill: 18°   Ceiling: 2300
Heat Index: 25°   Visibility: 10mi
Dew Point: 18°   Wind: 7mph
Humidity: 74%   Direction: 340°NNW
Pressure: 30.19"   Gusts: NA
Location:  40.9455°N, 77.7398°W
Report Text: KUNV 200635Z AUTO 34006KT 10SM OVC023 M04/M08 A3019 RMK AO2 T10371077
Loading
Personal Weather Stations






























Interactive Weather Map New forecast layout! Learn more

10-Day Weather Forecast

Advertisements
Track Severe Weather on mobile